Time;durP1;ratioP1;P1;durP2;ratioP2;P2;SDS_P1;SDS_P2;PMS_P1;PMS_P2;Temp;Humidity;BMP_temperature;BMP_pressure;BME280_temperature;BME280_humidity;BME280_pressure;Samples;Min_cycle;Max_cycle;Signal;HPM_P1;HPM_P2
2021/04/14 00:00:53;;;;;;;2.20;1.40;;;;;;;1.70;56.13;100178.91;5140473;27;43387;-72
2021/04/14 00:03:23;;;;;;;2.10;1.50;;;;;;;1.67;56.58;100168.47;5108760;27;43015;-72
2021/04/14 00:05:51;;;;;;;3.43;1.97;;;;;;;1.65;56.88;100175.44;5107662;27;40346;-72
2021/04/14 00:08:19;;;;;;;2.03;1.70;;;;;;;1.62;56.61;100169.38;5090829;28;40717;-72
2021/04/14 00:10:47;;;;;;;2.60;1.47;;;;;;;1.57;56.51;100174.63;5107049;28;43587;-73
2021/04/14 00:13:19;;;;;;;3.20;1.97;;;;;;;1.54;56.52;100169.41;5107365;28;43082;-73
2021/04/14 00:15:50;;;;;;;2.13;1.93;;;;;;;1.47;56.77;100159.91;5090892;28;38376;-73
2021/04/14 00:18:18;;;;;;;3.20;1.60;;;;;;;1.48;56.76;100174.69;5108750;27;43340;-72
2021/04/14 00:20:46;;;;;;;1.60;1.47;;;;;;;1.45;57.01;100172.09;5106083;28;42918;-72
2021/04/14 00:23:15;;;;;;;3.23;1.70;;;;;;;1.42;57.18;100161.66;5106927;28;42576;-73
2021/04/14 00:25:44;;;;;;;2.00;1.37;;;;;;;1.40;57.08;100166.00;5111974;27;40045;-72
2021/04/14 00:28:22;;;;;;;4.13;2.00;;;;;;;1.38;57.98;100166.00;5110590;28;40722;-72
2021/04/14 00:30:51;;;;;;;3.07;1.80;;;;;;;1.36;57.78;100167.75;5092656;28;41768;-72
2021/04/14 00:33:19;;;;;;;2.37;1.60;;;;;;;1.36;58.25;100161.69;5111381;27;42144;-72
2021/04/14 00:35:46;;;;;;;2.63;1.73;;;;;;;1.35;57.97;100167.78;5110729;28;39827;-74
2021/04/14 00:38:14;;;;;;;3.70;1.63;;;;;;;1.33;58.53;100162.56;5110735;28;41070;-72
2021/04/14 00:40:44;;;;;;;2.50;1.60;;;;;;;1.31;58.23;100168.66;5112202;27;43493;-72
2021/04/14 00:43:13;;;;;;;2.47;1.93;;;;;;;1.30;58.08;100166.94;5110270;28;42089;-72
2021/04/14 00:45:53;;;;;;;4.40;2.10;;;;;;;1.26;57.97;100165.19;5110455;28;40471;-72
2021/04/14 00:48:21;;;;;;;3.10;1.73;;;;;;;1.24;58.13;100166.94;5112270;27;41957;-72
2021/04/14 00:50:48;;;;;;;3.57;1.80;;;;;;;1.22;58.41;100163.50;5109452;28;42297;-72
2021/04/14 00:53:15;;;;;;;2.63;2.17;;;;;;;1.22;59.09;100158.28;5109555;28;41831;-72
2021/04/14 00:55:42;;;;;;;3.60;1.93;;;;;;;1.19;58.98;100159.16;5109961;28;41241;-72
2021/04/14 00:58:10;;;;;;;3.80;2.20;;;;;;;1.19;58.70;100168.72;5111661;27;42349;-72
2021/04/14 01:00:39;;;;;;;2.87;2.20;;;;;;;1.16;58.72;100173.94;5111714;27;43580;-72
2021/04/14 01:03:13;;;;;;;2.67;1.70;;;;;;;1.13;58.98;100169.59;5109699;28;41306;-72
2021/04/14 01:05:41;;;;;;;3.83;2.40;;;;;;;1.10;59.48;100164.41;5109869;28;40041;-73
2021/04/14 01:08:08;;;;;;;2.80;2.50;;;;;;;1.07;60.18;100164.41;5109845;28;42536;-71
2021/04/14 01:10:35;;;;;;;4.77;2.90;;;;;;;1.02;60.14;100155.72;5111252;27;42326;-72
2021/04/14 01:13:03;;;;;;;3.17;2.53;;;;;;;1.05;60.10;100160.94;5110769;27;42342;-72
2021/04/14 01:15:34;;;;;;;4.63;2.60;;;;;;;1.03;60.53;100163.53;5111012;27;39772;-72
2021/04/14 01:18:01;;;;;;;3.70;2.53;;;;;;;0.95;60.54;100148.78;5129837;27;42488;-73
2021/04/14 01:20:29;;;;;;;4.27;2.53;;;;;;;1.00;60.39;100160.94;5130756;27;42754;-72
2021/04/14 01:22:57;;;;;;;3.73;2.10;;;;;;;0.88;60.09;100142.72;5131303;27;42686;-72
2021/04/14 01:25:27;;;;;;;4.67;2.70;;;;;;;0.95;59.95;100164.44;5131666;27;40984;-72
2021/04/14 01:27:54;;;;;;;2.50;2.10;;;;;;;0.93;60.13;100161.84;5131191;27;42294;-73
2021/04/14 01:30:24;;;;;;;2.73;2.47;;;;;;;0.91;59.93;100163.56;5120473;27;43436;-72
2021/04/14 01:32:52;;;;;;;4.00;2.33;;;;;;;0.88;59.98;100163.56;5110529;27;42919;-72
2021/04/14 01:35:20;;;;;;;3.83;2.33;;;;;;;0.86;60.15;100161.88;5091794;28;38911;-73
2021/04/14 01:37:48;;;;;;;3.20;2.10;;;;;;;0.85;60.26;100157.53;5111163;27;42573;-73
2021/04/14 01:40:19;;;;;;;2.10;1.90;;;;;;;0.85;60.27;100162.75;5109125;28;42569;-72
2021/04/14 01:42:46;;;;;;;4.13;2.23;;;;;;;0.82;59.90;100168.81;5110229;27;42711;-73
2021/04/14 01:45:15;;;;;;;3.03;2.17;;;;;;;0.78;59.65;100167.09;5137877;27;40593;-73
2021/04/14 01:47:58;;;;;;;2.90;2.13;;;;;;;0.74;59.95;100160.16;5089420;28;41509;-73
2021/04/14 01:50:26;;;;;;;2.97;2.20;;;;;;;0.72;59.88;100161.91;5089600;28;42505;-72
2021/04/14 01:52:53;;;;;;;2.23;1.87;;;;;;;0.64;60.16;100158.41;5089949;28;42892;-72
2021/04/14 01:55:21;;;;;;;3.00;2.03;;;;;;;0.66;61.10;100154.06;5106581;28;40488;-72
2021/04/14 01:57:49;;;;;;;3.47;2.07;;;;;;;0.64;60.59;100161.03;5110482;27;42454;-72
2021/04/14 02:00:20;;;;;;;3.60;2.50;;;;;;;0.57;60.43;100152.38;5110669;27;42575;-71
2021/04/14 02:02:48;;;;;;;2.50;2.30;;;;;;;0.61;60.42;100161.94;5110647;27;42385;-72
2021/04/14 02:05:16;;;;;;;2.90;2.10;;;;;;;0.61;60.33;100155.84;5107971;28;39510;-72
2021/04/14 02:07:44;;;;;;;4.00;2.43;;;;;;;0.60;60.43;100156.72;5109676;27;42179;-71
2021/04/14 02:10:14;;;;;;;2.70;1.63;;;;;;;0.49;60.49;100135.00;5109446;27;43207;-71
2021/04/14 02:12:42;;;;;;;3.37;2.30;;;;;;;0.49;61.01;100142.81;5110372;27;42391;-71
2021/04/14 02:15:14;;;;;;;2.27;2.07;;;;;;;0.57;60.88;100152.38;5107970;28;40130;-71
2021/04/14 02:17:41;;;;;;;3.27;2.20;;;;;;;0.52;60.85;100151.47;5109855;27;41354;-71
2021/04/14 02:20:10;;;;;;;2.60;2.20;;;;;;;0.50;60.55;100152.34;5109840;27;43583;-72
2021/04/14 02:22:38;;;;;;;2.03;1.70;;;;;;;0.49;60.70;100153.25;5110319;27;42696;-71
2021/04/14 02:25:07;;;;;;;6.50;2.87;;;;;;;0.47;60.59;100152.38;5142538;27;40288;-71
2021/04/14 02:27:35;;;;;;;2.40;2.17;;;;;;;0.42;60.52;100146.28;5108593;28;41524;-71
2021/04/14 02:30:04;;;;;;;4.77;2.57;;;;;;;0.40;60.74;100142.81;5109564;27;42650;-71
2021/04/14 02:32:31;;;;;;;3.13;2.43;;;;;;;0.35;61.60;100125.47;5107766;28;42688;-71
2021/04/14 02:34:58;;;;;;;4.73;3.30;;;;;;;0.41;61.81;100128.91;5108569;28;41037;-72
2021/04/14 02:37:25;;;;;;;3.87;2.57;;;;;;;0.34;61.55;100122.84;5107832;27;42450;-72
2021/04/14 02:39:53;;;;;;;4.43;2.73;;;;;;;0.34;61.34;100138.50;5109756;27;42490;-71
2021/04/14 02:42:20;;;;;;;2.73;2.40;;;;;;;0.31;61.22;100128.06;5091777;28;41580;-71
2021/04/14 02:44:47;;;;;;;6.10;2.23;;;;;;;0.28;61.14;100139.34;5109614;27;39956;-71
2021/04/14 02:47:15;;;;;;;5.47;2.60;;;;;;;0.25;61.04;100123.72;5107696;28;41451;-72
2021/04/14 02:49:42;;;;;;;3.47;2.50;;;;;;;0.26;61.47;100141.09;5108434;28;41928;-71
2021/04/14 02:52:29;;;;;;;3.37;2.60;;;;;;;0.24;61.42;100141.97;5123006;27;41243;-71
2021/04/14 02:54:56;;;;;;;3.70;2.10;;;;;;;0.18;61.33;100137.63;5091160;28;39894;-74
2021/04/14 02:57:24;;;;;;;3.33;2.23;;;;;;;0.15;61.06;100142.81;5109792;27;42480;-71
2021/04/14 02:59:53;;;;;;;2.93;1.70;;;;;;;0.13;61.30;100139.34;5107910;28;43467;-72
2021/04/14 03:02:22;;;;;;;4.07;2.00;;;;;;;0.11;61.30;100148.94;5109525;27;43086;-71
2021/04/14 03:04:49;;;;;;;2.13;1.90;;;;;;;0.07;61.31;100139.38;5108328;28;39160;-71
2021/04/14 03:07:16;;;;;;;3.93;1.93;;;;;;;-0.02;61.17;100128.94;5108132;28;42055;-72
2021/04/14 03:09:43;;;;;;;3.00;2.03;;;;;;;-0.04;61.37;100130.69;5109239;27;43103;-72
2021/04/14 03:12:12;;;;;;;2.30;2.10;;;;;;;-0.02;61.15;100145.44;5109001;27;42698;-72
2021/04/14 03:14:39;;;;;;;2.47;1.87;;;;;;;-0.06;61.25;100145.44;5108419;28;39151;-71
2021/04/14 03:17:06;;;;;;;3.30;1.87;;;;;;;-0.07;61.31;100152.38;5106915;28;40896;-71
2021/04/14 03:19:34;;;;;;;2.10;1.90;;;;;;;-0.09;61.29;100154.09;5107936;28;42514;-71
2021/04/14 03:22:01;;;;;;;2.93;1.80;;;;;;;-0.12;61.27;100145.41;5107818;27;42058;-72
2021/04/14 03:24:28;;;;;;;3.13;1.87;;;;;;;-0.16;61.39;100141.97;5109683;27;41874;-72
2021/04/14 03:26:55;;;;;;;1.70;1.53;;;;;;;-0.29;61.33;100123.72;5107777;28;41504;-73
2021/04/14 03:29:23;;;;;;;1.93;1.83;;;;;;;-0.19;61.39;100147.16;5109327;27;42742;-72
2021/04/14 03:31:50;;;;;;;2.30;2.03;;;;;;;-0.22;61.45;100149.75;5109022;27;42745;-73
2021/04/14 03:34:17;;;;;;;2.10;1.90;;;;;;;-0.24;61.42;100148.88;5108286;28;39007;-72
2021/04/14 03:36:46;;;;;;;3.13;1.77;;;;;;;-0.36;61.62;100139.31;5091288;28;41403;-73
2021/04/14 03:39:13;;;;;;;3.83;2.23;;;;;;;-0.32;61.54;100150.59;5108004;28;43505;-73
2021/04/14 03:41:40;;;;;;;4.33;2.17;;;;;;;-0.30;61.75;100148.00;5107877;28;41316;-73
2021/04/14 03:44:08;;;;;;;2.67;2.03;;;;;;;-0.33;61.71;100148.84;5107081;28;40663;-73
2021/04/14 03:46:35;;;;;;;5.10;2.00;;;;;;;-0.34;61.83;100152.31;5108292;27;41520;-73
2021/04/14 03:49:02;;;;;;;3.50;2.13;;;;;;;-0.37;61.97;100150.56;5091077;28;42586;-73
2021/04/14 03:51:29;;;;;;;3.33;2.13;;;;;;;-0.36;62.31;100143.63;5106980;28;42137;-72
2021/04/14 03:53:57;;;;;;;3.17;2.20;;;;;;;-0.34;62.68;100149.72;5106560;28;40749;-72
2021/04/14 03:56:25;;;;;;;2.47;2.27;;;;;;;-0.33;63.15;100143.66;5107960;28;41390;-72
2021/04/14 03:58:53;;;;;;;2.30;1.90;;;;;;;-0.32;63.05;100147.13;5108891;27;43554;-72
2021/04/14 04:01:29;;;;;;;2.67;1.70;;;;;;;-0.34;63.35;100141.03;5112670;27;42961;-73
2021/04/14 04:03:57;;;;;;;3.63;2.50;;;;;;;-0.32;63.28;100148.00;5110661;28;40928;-73
2021/04/14 04:06:25;;;;;;;3.80;2.17;;;;;;;-0.36;63.17;100149.72;5110098;28;42550;-71
2021/04/14 04:08:52;;;;;;;3.33;1.80;;;;;;;-0.34;62.86;100149.72;5090147;28;42873;-71
2021/04/14 04:11:24;;;;;;;3.40;1.97;;;;;;;-0.40;62.98;100142.78;5091712;28;42935;-72
2021/04/14 04:13:52;;;;;;;2.20;2.00;;;;;;;-0.43;63.20;100128.88;5091762;28;41560;-72
2021/04/14 04:16:19;;;;;;;2.57;2.00;;;;;;;-0.36;62.95;100148.84;5090488;28;41811;-72
2021/04/14 04:18:46;;;;;;;4.07;2.57;;;;;;;-0.39;63.00;100149.72;5120937;27;42220;-72
2021/04/14 04:21:14;;;;;;;2.43;2.23;;;;;;;-0.40;63.00;100153.19;5132741;27;42830;-72
2021/04/14 04:23:41;;;;;;;3.10;2.10;;;;;;;-0.42;62.98;100159.25;5132284;27;40627;-72
2021/04/14 04:26:08;;;;;;;3.30;2.47;;;;;;;-0.43;63.04;100153.19;5132822;27;42270;-73
2021/04/14 04:28:36;;;;;;;2.33;2.13;;;;;;;-0.46;63.01;100153.16;5132639;27;43474;-72
2021/04/14 04:31:03;;;;;;;3.70;2.10;;;;;;;-0.52;62.93;100149.69;5115993;27;42283;-72
2021/04/14 04:33:30;;;;;;;3.13;2.27;;;;;;;-0.56;62.90;100143.59;5109674;28;39990;-73
2021/04/14 04:35:58;;;;;;;6.47;3.10;;;;;;;-0.49;63.90;100150.53;5111305;27;41844;-73
2021/04/14 04:38:25;;;;;;;2.37;2.17;;;;;;;-0.49;63.79;100145.34;5110993;27;42514;-72
2021/04/14 04:40:53;;;;;;;4.17;2.50;;;;;;;-0.49;63.92;100153.16;5111598;27;42630;-72
2021/04/14 04:43:21;;;;;;;3.00;2.17;;;;;;;-0.47;63.62;100153.16;5111806;27;40617;-72
2021/04/14 04:45:50;;;;;;;3.83;2.47;;;;;;;-0.51;63.43;100139.28;5109867;28;41722;-73
2021/04/14 04:48:30;;;;;;;3.27;2.93;;;;;;;-0.45;63.63;100152.31;5110779;27;43494;-71
2021/04/14 04:50:57;;;;;;;3.07;2.40;;;;;;;-0.44;63.37;100161.84;5111385;27;42295;-71
2021/04/14 04:53:25;;;;;;;3.27;2.50;;;;;;;-0.42;63.29;100157.53;5107551;27;40989;-72
2021/04/14 04:55:53;;;;;;;3.00;2.40;;;;;;;-0.40;63.15;100153.19;5094304;28;41876;-73
2021/04/14 04:58:25;;;;;;;2.67;2.23;;;;;;;-0.36;63.17;100161.84;5111784;27;43173;-72
2021/04/14 05:00:54;;;;;;;4.83;2.53;;;;;;;-0.32;63.01;100170.53;5111019;27;42295;-72
2021/04/14 05:03:23;;;;;;;4.47;3.60;;;;;;;-0.29;62.83;100167.97;5111482;27;40793;-72
2021/04/14 05:05:52;;;;;;;3.57;2.50;;;;;;;-0.23;62.68;100175.75;5109250;28;41853;-72
2021/04/14 05:08:19;;;;;;;2.77;2.40;;;;;;;-0.17;62.78;100175.78;5109974;28;43404;-73
2021/04/14 05:10:52;;;;;;;4.80;2.17;;;;;;;-0.10;62.78;100173.19;5109466;27;42790;-72
2021/04/14 05:13:27;;;;;;;3.07;2.23;;;;;;;-0.02;62.81;100173.22;5093776;28;39118;-72
2021/04/14 05:15:55;;;;;;;2.53;2.00;;;;;;;0.06;62.67;100173.22;5108396;28;42474;-72
2021/04/14 05:18:22;;;;;;;2.90;2.00;;;;;;;0.12;62.62;100166.28;5109531;28;43376;-72
2021/04/14 05:20:50;;;;;;;3.00;2.10;;;;;;;0.24;62.65;100176.72;5108886;28;40847;-72
2021/04/14 05:23:23;;;;;;;2.80;2.20;;;;;;;0.39;62.42;100177.56;5111611;27;39787;-72
2021/04/14 05:25:51;;;;;;;3.97;2.50;;;;;;;0.65;61.86;100175.78;5110294;27;41744;-73
2021/04/14 05:28:25;;;;;;;3.30;2.40;;;;;;;0.99;61.30;100176.63;5109790;28;42919;-73
2021/04/14 05:30:52;;;;;;;3.13;2.47;;;;;;;1.29;61.15;100179.09;5110491;27;42917;-72
2021/04/14 05:33:21;;;;;;;4.17;2.30;;;;;;;1.47;61.10;100185.13;5111222;27;39858;-73
2021/04/14 05:35:51;;;;;;;2.90;2.40;;;;;;;1.49;61.33;100173.78;5110223;27;42454;-73
2021/04/14 05:38:25;;;;;;;4.53;1.90;;;;;;;1.56;61.32;100180.72;5088944;28;42860;-73
2021/04/14 05:40:53;;;;;;;3.93;2.37;;;;;;;1.68;61.51;100185.88;5089314;28;41940;-73
2021/04/14 05:43:30;;;;;;;2.03;1.50;;;;;;;1.83;61.26;100186.69;5089041;28;39917;-72
2021/04/14 05:45:58;;;;;;;2.87;2.27;;;;;;;1.94;61.27;100184.88;5088967;28;41680;-72
2021/04/14 05:48:28;;;;;;;3.23;2.50;;;;;;;2.04;61.18;100178.69;5088899;28;42530;-72
2021/04/14 05:50:58;;;;;;;2.60;2.30;;;;;;;2.12;61.11;100182.13;5088615;28;42407;-72
2021/04/14 05:53:29;;;;;;;4.57;2.63;;;;;;;2.20;60.90;100198.63;5090615;28;40672;-73
2021/04/14 05:56:00;;;;;;;4.53;2.23;;;;;;;2.26;60.99;100184.63;5090217;28;40936;-73
2021/04/14 05:58:33;;;;;;;7.13;2.80;;;;;;;2.32;60.72;100190.69;5089750;28;42641;-72
2021/04/14 06:01:01;;;;;;;7.00;2.33;;;;;;;2.56;60.47;100199.22;5089936;28;43242;-72
2021/04/14 06:03:29;;;;;;;3.93;2.03;;;;;;;3.00;59.56;100197.03;5089744;28;39354;-73
2021/04/14 06:05:58;;;;;;;4.50;2.50;;;;;;;3.67;58.21;100214.56;5071017;28;40860;-72
2021/04/14 06:08:26;;;;;;;3.27;2.73;;;;;;;4.35;56.77;100223.19;5089742;28;42667;-71
2021/04/14 06:10:57;;;;;;;5.03;2.70;;;;;;;4.73;55.90;100219.09;5088093;28;42239;-72
2021/04/14 06:13:32;;;;;;;3.63;2.90;;;;;;;4.67;56.50;100223.56;5094200;28;40010;-72
2021/04/14 06:16:04;;;;;;;4.03;2.90;;;;;;;4.57;56.66;100213.25;5091981;28;40144;-73
2021/04/14 06:18:44;;;;;;;4.77;2.40;;;;;;;4.75;56.85;100212.06;5110551;27;43190;-72
2021/04/14 06:21:13;;;;;;;3.97;2.97;;;;;;;5.01;56.84;100208.09;5107550;28;42590;-72
2021/04/14 06:23:40;;;;;;;4.70;2.70;;;;;;;5.24;56.67;100212.91;5109975;27;40543;-72
2021/04/14 06:26:21;;;;;;;3.73;2.50;;;;;;;5.51;56.46;100215.88;5109922;27;42344;-72
2021/04/14 06:28:48;;;;;;;3.23;2.40;;;;;;;5.72;56.22;100210.19;5110055;27;43568;-72
2021/04/14 06:31:15;;;;;;;3.33;2.50;;;;;;;5.75;56.25;100212.75;5108352;28;41960;-73
2021/04/14 06:33:48;;;;;;;4.80;2.67;;;;;;;5.76;55.88;100211.84;5109526;28;40652;-73
2021/04/14 06:36:15;;;;;;;6.23;2.50;;;;;;;5.77;56.05;100221.47;5109986;27;42426;-73
2021/04/14 06:38:45;;;;;;;3.87;2.80;;;;;;;5.80;56.05;100210.91;5108832;28;42573;-72
2021/04/14 06:44:49;;;;;;;5.43;2.77;;;;;;;6.03;55.00;100221.81;5102223;27;40860;-73
2021/04/14 06:47:21;;;;;;;3.20;2.67;;;;;;;6.07;54.57;100218.19;5108630;28;41829;-73
2021/04/14 06:49:55;;;;;;;4.47;2.53;;;;;;;6.21;53.90;100235.44;5108278;28;42547;-74
2021/04/14 06:52:31;;;;;;;4.30;2.17;;;;;;;6.30;53.94;100225.59;5109785;27;42686;-72
2021/04/14 06:55:02;;;;;;;5.17;2.70;;;;;;;6.40;53.89;100215.69;5109774;27;40724;-74
2021/04/14 06:57:32;;;;;;;5.63;2.87;;;;;;;6.59;53.46;100226.63;5108599;28;41626;-73
2021/04/14 07:00:05;;;;;;;4.93;2.40;;;;;;;6.69;53.57;100226.38;5109660;27;42710;-72
2021/04/14 07:02:40;;;;;;;3.53;2.73;;;;;;;6.87;53.18;100216.28;5108681;28;41880;-73
2021/04/14 07:05:13;;;;;;;4.03;2.87;;;;;;;7.10;54.69;100213.91;5108357;28;39521;-73
2021/04/14 07:07:41;;;;;;;4.40;2.90;;;;;;;7.43;54.24;100210.34;5108749;27;41726;-73
2021/04/14 07:10:16;;;;;;;3.40;3.10;;;;;;;7.86;53.85;100211.75;5109415;27;42786;-73
2021/04/14 07:12:44;;;;;;;5.57;3.20;;;;;;;8.22;52.57;100225.59;5109834;27;42177;-73
2021/04/14 07:15:16;;;;;;;5.33;3.87;;;;;;;8.53;50.48;100249.31;5108258;27;39755;-73
2021/04/14 07:18:00;;;;;;;5.17;3.20;;;;;;;9.28;48.88;100239.69;5109066;28;41055;-73
2021/04/14 07:20:33;;;;;;;5.13;3.10;;;;;;;10.20;46.97;100251.31;5108398;27;42523;-73
2021/04/14 07:23:18;;;;;;;3.83;3.20;;;;;;;11.26;45.83;100255.78;5108809;27;42955;-73
2021/04/14 07:25:53;;;;;;;3.17;2.67;;;;;;;11.88;43.86;100272.47;5090986;28;39907;-74
2021/04/14 07:28:39;;;;;;;5.03;3.10;;;;;;;12.30;42.42;100279.41;5089370;28;40902;-73
2021/04/14 07:31:12;;;;;;;5.27;2.80;;;;;;;12.36;42.09;100278.28;5109160;27;43240;-73
2021/04/14 07:33:54;;;;;;;5.03;2.97;;;;;;;12.42;40.55;100300.09;5108435;27;42885;-73
2021/04/14 07:36:35;;;;;;;3.87;2.43;;;;;;;13.02;40.81;100283.91;5108757;27;41641;-74
2021/04/14 07:39:11;;;;;;;3.10;2.50;;;;;;;13.74;38.33;100299.75;5108692;27;42388;-74
2021/04/14 07:41:50;;;;;;;4.27;2.60;;;;;;;14.46;36.80;100310.09;5107418;28;42912;-73
2021/04/14 07:44:27;;;;;;;6.30;2.43;;;;;;;15.24;36.43;100293.16;5109108;27;42286;-74
2021/04/14 07:46:55;;;;;;;3.73;2.50;;;;;;;15.72;35.74;100305.41;5090939;28;40198;-74
2021/04/14 07:49:26;;;;;;;4.23;2.90;;;;;;;16.30;34.72;100317.88;5091351;28;41742;-75
2021/04/14 07:51:54;;;;;;;4.47;2.80;;;;;;;17.06;34.40;100316.47;5107079;28;42628;-75
2021/04/14 07:54:23;;;;;;;5.33;2.90;;;;;;;17.39;32.29;100326.78;5107505;28;42864;-73
2021/04/14 07:56:52;;;;;;;4.50;2.50;;;;;;;17.60;32.33;100319.97;5107112;28;40625;-73
2021/04/14 07:59:27;;;;;;;5.27;2.70;;;;;;;18.34;31.29;100325.59;5107903;28;41608;-73
2021/04/14 08:01:56;;;;;;;3.47;2.30;;;;;;;18.63;30.16;100337.81;5107099;28;42428;-73
2021/04/14 08:04:29;;;;;;;8.20;3.10;;;;;;;18.44;29.87;100334.69;5109218;27;42961;-73
2021/04/14 08:07:12;;;;;;;4.23;2.27;;;;;;;18.72;29.96;100330.91;5108017;27;40438;-73
2021/04/14 08:09:53;;;;;;;5.40;2.53;;;;;;;19.76;27.84;100345.50;5108458;27;42425;-74
2021/04/14 08:12:27;;;;;;;5.60;2.40;;;;;;;20.27;27.75;100346.84;5107049;28;43502;-74
2021/04/14 08:15:06;;;;;;;4.37;2.50;;;;;;;20.81;26.73;100354.19;5106618;28;42992;-73
2021/04/14 08:17:52;;;;;;;4.57;2.43;;;;;;;20.89;25.92;100354.44;5108384;27;39689;-73
2021/04/14 08:20:36;;;;;;;4.90;2.40;;;;;;;20.51;26.77;100338.69;5106521;28;42247;-73
2021/04/14 08:23:10;;;;;;;3.37;2.67;;;;;;;20.51;26.51;100343.22;5109013;27;42593;-73
2021/04/14 08:25:40;;;;;;;3.27;2.37;;;;;;;20.67;26.49;100332.91;5108481;27;42667;-73
2021/04/14 08:28:08;;;;;;;5.53;2.20;;;;;;;19.64;26.90;100326.66;5107469;28;40892;-74
2021/04/14 08:30:35;;;;;;;4.70;2.10;;;;;;;19.76;26.13;100329.38;5106516;28;41307;-73
2021/04/14 08:33:04;;;;;;;4.90;2.10;;;;;;;19.16;26.35;100341.09;5108242;27;43249;-73
2021/04/14 08:35:34;;;;;;;3.93;2.30;;;;;;;17.92;27.73;100319.63;5107609;27;42106;-74
2021/04/14 08:38:03;;;;;;;3.80;2.77;;;;;;;18.38;27.60;100316.38;5107137;28;39875;-73
2021/04/14 08:40:34;;;;;;;5.37;2.33;;;;;;;20.00;25.55;100322.97;5107959;27;42442;-74
2021/04/14 08:43:11;;;;;;;12.60;3.30;;;;;;;19.24;26.23;100331.47;5107836;27;42565;-73
2021/04/14 08:45:43;;;;;;;5.30;2.50;;;;;;;18.23;26.80;100327.22;5107234;28;42707;-73
2021/04/14 08:48:18;;;;;;;4.60;1.83;;;;;;;18.62;27.50;100317.31;5111770;27;39868;-73
2021/04/14 08:50:49;;;;;;;3.43;1.70;;;;;;;20.89;24.96;100332.88;5092594;28;40738;-74
2021/04/14 08:53:21;;;;;;;5.20;1.97;;;;;;;22.70;23.18;100341.59;5127848;27;42126;-74
2021/04/14 08:55:49;;;;;;;6.27;2.20;;;;;;;23.90;22.28;100333.22;5111631;27;42570;-75
2021/04/14 08:58:19;;;;;;;3.50;1.97;;;;;;;23.67;21.65;100342.66;5110761;28;40046;-74
2021/04/14 09:00:47;;;;;;;2.57;1.57;;;;;;;22.17;21.59;100355.28;5111759;27;42898;-73
2021/04/14 09:03:21;;;;;;;3.37;2.17;;;;;;;22.14;22.17;100341.19;5110083;28;43505;-74
2021/04/14 09:05:49;;;;;;;6.20;1.77;;;;;;;23.78;21.35;100334.38;5112117;27;42994;-74
2021/04/14 09:08:19;;;;;;;3.40;1.70;;;;;;;25.89;19.88;100339.72;5110959;27;39696;-75
2021/04/14 09:10:52;;;;;;;5.17;1.60;;;;;;;25.10;18.78;100349.66;5111274;27;41790;-74
2021/04/14 09:13:32;;;;;;;3.70;1.60;;;;;;;25.05;19.99;100340.09;5111446;27;43117;-74
2021/04/14 09:16:01;;;;;;;2.07;1.37;;;;;;;24.49;19.66;100340.19;5109245;28;42166;-74
2021/04/14 09:18:33;;;;;;;5.57;1.43;;;;;;;23.21;20.77;100327.97;5110525;28;40768;-73
2021/04/14 09:21:09;;;;;;;1.90;1.40;;;;;;;22.86;20.24;100311.41;5109789;28;41721;-74
2021/04/14 09:23:38;;;;;;;2.77;1.60;;;;;;;22.51;21.17;100303.72;5093037;28;41658;-73
2021/04/14 09:26:16;;;;;;;6.13;1.87;;;;;;;23.22;22.61;100299.94;5110618;27;42272;-74
2021/04/14 09:28:48;;;;;;;3.67;1.60;;;;;;;24.35;20.79;100302.81;5111441;27;40743;-74
2021/04/14 09:31:26;;;;;;;4.03;1.60;;;;;;;25.09;20.12;100305.41;5109363;28;41691;-74
2021/04/14 09:33:55;;;;;;;3.57;1.40;;;;;;;26.02;18.91;100299.44;5110862;27;43245;-74
2021/04/14 09:36:33;;;;;;;2.87;1.90;;;;;;;26.97;17.90;100311.16;5110881;27;42887;-74
2021/04/14 09:39:10;;;;;;;3.03;1.60;;;;;;;28.05;17.92;100302.75;5110865;27;39730;-74
2021/04/14 09:41:38;;;;;;;2.80;1.27;;;;;;;26.83;18.36;100316.16;5110393;27;42548;-74
2021/04/14 09:44:35;;;;;;;3.43;1.40;;;;;;;24.81;18.72;100311.84;5110930;27;43291;-73
2021/04/14 09:47:19;;;;;;;2.80;1.30;;;;;;;22.76;20.13;100297.84;5109047;28;42698;-74
2021/04/14 09:49:48;;;;;;;2.23;1.40;;;;;;;21.37;21.63;100284.88;5092536;28;39081;-74
2021/04/14 09:52:26;;;;;;;1.93;1.23;;;;;;;20.34;22.85;100282.63;5092991;28;40864;-73
2021/04/14 09:54:58;;;;;;;4.40;1.40;;;;;;;19.46;23.74;100268.91;5092587;28;42703;-73
2021/04/14 09:57:29;;;;;;;2.83;1.63;;;;;;;18.68;25.26;100260.50;5109294;28;42951;-74
2021/04/14 09:59:58;;;;;;;2.63;1.47;;;;;;;17.98;26.76;100251.28;5108614;28;39808;-73
2021/04/14 10:02:27;;;;;;;4.00;1.70;;;;;;;17.23;28.55;100240.41;5092853;28;41606;-74
2021/04/14 10:04:54;;;;;;;4.40;1.63;;;;;;;16.47;29.93;100229.41;5110194;27;43245;-74
2021/04/14 10:07:26;;;;;;;5.70;1.70;;;;;;;15.64;31.94;100220.41;5109791;27;43019;-73
2021/04/14 10:10:05;;;;;;;3.83;1.80;;;;;;;14.72;33.62;100190.34;5110065;27;40968;-73
2021/04/14 10:12:32;;;;;;;3.17;1.90;;;;;;;14.00;34.90;100177.56;5099035;27;41610;-74
2021/04/14 10:15:01;;;;;;;3.90;1.50;;;;;;;13.66;36.60;100183.88;5088555;28;42630;-70
2021/04/14 10:17:31;;;;;;;6.20;1.93;;;;;;;13.24;37.16;100176.38;5109487;27;42189;-72
2021/04/14 10:20:09;;;;;;;4.37;1.60;;;;;;;12.93;38.44;100174.41;5108657;27;40484;-72
2021/04/14 10:22:43;;;;;;;4.60;1.47;;;;;;;12.73;39.00;100165.72;5107856;28;40607;-72
2021/04/14 10:25:19;;;;;;;3.30;1.43;;;;;;;12.64;39.29;100158.19;5096730;27;42137;-73
2021/04/14 10:27:47;;;;;;;2.53;1.70;;;;;;;12.70;39.15;100165.88;5109277;27;42773;-72
2021/04/14 10:30:21;;;;;;;4.30;1.73;;;;;;;12.71;39.24;100146.34;5108844;27;40329;-72
2021/04/14 10:32:50;;;;;;;1.70;1.37;;;;;;;13.04;39.49;100144.59;5108938;27;41643;-73
2021/04/14 10:35:20;;;;;;;3.63;1.73;;;;;;;13.27;37.72;100162.91;5105588;28;42609;-73
2021/04/14 10:37:49;;;;;;;3.93;1.27;;;;;;;13.69;37.92;100158.91;5108892;27;43030;-72
2021/04/14 10:40:22;;;;;;;3.17;1.33;;;;;;;14.13;36.60;100168.88;5107994;27;39969;-73
2021/04/14 10:42:51;;;;;;;2.30;1.50;;;;;;;14.62;36.24;100162.50;5105436;28;41526;-73
2021/04/14 10:45:21;;;;;;;5.83;1.80;;;;;;;15.13;34.71;100168.34;5108873;27;43639;-73
2021/04/14 10:47:51;;;;;;;3.20;1.77;;;;;;;15.63;33.92;100167.09;5108865;27;42943;-74
2021/04/14 10:50:29;;;;;;;2.80;1.50;;;;;;;16.06;32.76;100174.13;5107515;28;40420;-72
2021/04/14 10:53:00;;;;;;;4.17;1.60;;;;;;;16.38;31.80;100176.53;5108395;27;42389;-73
2021/04/14 10:55:34;;;;;;;4.07;1.53;;;;;;;16.78;32.04;100174.78;5108038;28;42809;-73
2021/04/14 10:58:04;;;;;;;4.73;1.80;;;;;;;17.22;31.68;100174.44;5107631;27;41900;-74
2021/04/14 11:00:35;;;;;;;4.73;1.60;;;;;;;17.75;31.23;100172.53;5106957;28;39984;-73
2021/04/14 11:03:06;;;;;;;3.40;1.47;;;;;;;18.22;29.05;100161.06;5108181;28;41611;-73
2021/04/14 11:05:37;;;;;;;2.30;1.57;;;;;;;18.66;29.98;100171.22;5107269;28;42839;-72
2021/04/14 11:08:05;;;;;;;2.37;1.33;;;;;;;19.03;29.15;100169.28;5107469;27;42199;-75
2021/04/14 11:10:35;;;;;;;3.87;1.90;;;;;;;19.10;28.32;100175.03;5107062;28;39658;-75
2021/04/14 11:13:05;;;;;;;6.20;1.80;;;;;;;18.90;28.50;100177.41;5107577;28;41118;-72
2021/04/14 11:15:41;;;;;;;2.20;1.93;;;;;;;18.52;28.54;100179.41;5107707;28;42597;-74
2021/04/14 11:18:10;;;;;;;3.40;2.20;;;;;;;17.93;29.20;100165.84;5107697;28;42735;-73
2021/04/14 11:20:45;;;;;;;3.30;1.80;;;;;;;17.41;29.94;100166.84;5090020;28;39322;-74
2021/04/14 11:23:21;;;;;;;2.53;1.70;;;;;;;16.86;29.89;100167.94;5108314;27;43703;-73
2021/04/14 11:25:49;;;;;;;2.77;1.43;;;;;;;16.62;30.01;100166.91;5108101;27;43020;-73
2021/04/14 11:28:18;;;;;;;16.57;9.47;;;;;;;16.39;30.16;100163.06;5107613;27;42018;-73
2021/04/14 11:30:51;;;;;;;2.50;1.80;;;;;;;16.24;29.01;100173.88;5107822;27;40056;-72
2021/04/14 11:33:20;;;;;;;2.40;1.40;;;;;;;16.24;27.71;100184.56;5101732;28;41767;-72
2021/04/14 11:35:49;;;;;;;2.63;1.20;;;;;;;16.31;28.06;100183.25;5089479;28;42756;-74
2021/04/14 11:38:31;;;;;;;3.50;1.63;;;;;;;16.87;29.06;100164.31;5108133;27;42290;-73
2021/04/14 11:40:59;;;;;;;3.20;1.90;;;;;;;17.70;28.88;100150.56;5107949;27;42893;-72
2021/04/14 11:43:37;;;;;;;2.20;1.70;;;;;;;18.31;28.54;100145.13;5105756;27;41749;-71
2021/04/14 11:46:09;;;;;;;2.73;1.43;;;;;;;17.93;27.59;100160.47;5077676;28;42614;-71
2021/04/14 11:48:39;;;;;;;3.80;1.33;;;;;;;17.66;28.77;100138.34;5107812;27;41931;-73